sensor_id;sensor_type;location;lat;lon;timestamp;pressure;altitude;pressure_sealevel;temperature;humidity
45793;BME280;31495;42.740;22.908;2023-02-23T00:00:58;92914.22;;;2.97;65.97
45793;BME280;31495;42.740;22.908;2023-02-23T00:01:58;92970.75;;;3.33;65.75
45793;BME280;31495;42.740;22.908;2023-02-23T00:03:05;92948.97;;;3.14;66.18
45793;BME280;31495;42.740;22.908;2023-02-23T00:04:05;92909.88;;;2.82;66.37
45793;BME280;31495;42.740;22.908;2023-02-23T00:05:05;92942.00;;;3.00;66.60
45793;BME280;31495;42.740;22.908;2023-02-23T00:06:07;92984.53;;;3.24;66.62
45793;BME280;31495;42.740;22.908;2023-02-23T00:07:07;92981.03;;;3.25;66.43
45793;BME280;31495;42.740;22.908;2023-02-23T00:08:07;92980.88;;;3.26;66.21
45793;BME280;31495;42.740;22.908;2023-02-23T00:09:09;92948.84;;;3.07;66.31
45793;BME280;31495;42.740;22.908;2023-02-23T00:10:22;92989.66;;;3.24;66.46
45793;BME280;31495;42.740;22.908;2023-02-23T00:11:28;92992.50;;;3.29;66.21
45793;BME280;31495;42.740;22.908;2023-02-23T00:12:27;92984.53;;;3.24;66.26
45793;BME280;31495;42.740;22.908;2023-02-23T00:13:28;92968.31;;;3.17;66.43
45793;BME280;31495;42.740;22.908;2023-02-23T00:14:28;92963.97;;;3.17;66.52
45793;BME280;31495;42.740;22.908;2023-02-23T00:15:29;92941.84;;;3.01;66.86
45793;BME280;31495;42.740;22.908;2023-02-23T00:16:28;92992.50;;;3.29;67.22
45793;BME280;31495;42.740;22.908;2023-02-23T00:17:27;92998.34;;;3.38;67.19
45793;BME280;31495;42.740;22.908;2023-02-23T00:18:29;92982.78;;;3.24;67.42
45793;BME280;31495;42.740;22.908;2023-02-23T00:19:29;92976.41;;;3.20;67.63
45793;BME280;31495;42.740;22.908;2023-02-23T00:20:31;92982.50;;;3.19;67.22
45793;BME280;31495;42.740;22.908;2023-02-23T00:21:31;92914.25;;;2.65;66.07
45793;BME280;31495;42.740;22.908;2023-02-23T00:22:33;92988.97;;;3.07;66.22
45793;BME280;31495;42.740;22.908;2023-02-23T00:23:33;93000.69;;;3.24;66.05
45793;BME280;31495;42.740;22.908;2023-02-23T00:24:33;92951.78;;;2.96;65.92
45793;BME280;31495;42.740;22.908;2023-02-23T00:25:36;92995.91;;;3.21;66.46
45793;BME280;31495;42.740;22.908;2023-02-23T00:26:38;92967.78;;;3.21;66.82
45793;BME280;31495;42.740;22.908;2023-02-23T00:27:38;92978.66;;;3.23;66.51
45793;BME280;31495;42.740;22.908;2023-02-23T00:28:42;92997.63;;;3.29;66.06
45793;BME280;31495;42.740;22.908;2023-02-23T00:29:41;92994.03;;;3.15;65.85
45793;BME280;31495;42.740;22.908;2023-02-23T00:30:41;92999.94;;;3.16;66.17
45793;BME280;31495;42.740;22.908;2023-02-23T00:31:40;93001.06;;;3.13;66.17
45793;BME280;31495;42.740;22.908;2023-02-23T00:32:42;92998.66;;;3.11;66.60
45793;BME280;31495;42.740;22.908;2023-02-23T00:33:42;92931.94;;;2.67;66.73
45793;BME280;31495;42.740;22.908;2023-02-23T00:34:41;92963.69;;;2.81;66.91
45793;BME280;31495;42.740;22.908;2023-02-23T00:35:41;92991.69;;;3.05;67.17
45793;BME280;31495;42.740;22.908;2023-02-23T00:36:41;92994.97;;;3.14;66.82
45793;BME280;31495;42.740;22.908;2023-02-23T00:37:48;92976.22;;;2.99;66.84
45793;BME280;31495;42.740;22.908;2023-02-23T00:38:51;92965.09;;;2.83;66.79
45793;BME280;31495;42.740;22.908;2023-02-23T00:39:54;92975.81;;;2.79;66.79
45793;BME280;31495;42.740;22.908;2023-02-23T00:40:54;92984.59;;;2.84;66.31
45793;BME280;31495;42.740;22.908;2023-02-23T00:41:54;93007.06;;;2.97;66.33
45793;BME280;31495;42.740;22.908;2023-02-23T00:42:54;92992.50;;;2.98;66.13
45793;BME280;31495;42.740;22.908;2023-02-23T00:43:58;92928.16;;;2.63;65.72
45793;BME280;31495;42.740;22.908;2023-02-23T00:44:58;92989.91;;;3.06;65.37
45793;BME280;31495;42.740;22.908;2023-02-23T00:46:05;92986.13;;;3.02;65.43
45793;BME280;31495;42.740;22.908;2023-02-23T00:47:05;92998.19;;;3.08;65.75
45793;BME280;31495;42.740;22.908;2023-02-23T00:48:05;92994.41;;;3.04;66.10
45793;BME280;31495;42.740;22.908;2023-02-23T00:49:10;92998.38;;;3.06;66.16
45793;BME280;31495;42.740;22.908;2023-02-23T00:50:11;92994.28;;;2.97;66.42
45793;BME280;31495;42.740;22.908;2023-02-23T00:51:12;92974.69;;;2.81;66.53
45793;BME280;31495;42.740;22.908;2023-02-23T00:52:12;92967.06;;;2.73;66.98
45793;BME280;31495;42.740;22.908;2023-02-23T00:53:12;92959.06;;;2.76;66.55
45793;BME280;31495;42.740;22.908;2023-02-23T00:54:13;92998.06;;;3.01;66.63
45793;BME280;31495;42.740;22.908;2023-02-23T00:55:13;92907.81;;;2.38;66.66
45793;BME280;31495;42.740;22.908;2023-02-23T00:56:14;92949.06;;;2.66;66.74
45793;BME280;31495;42.740;22.908;2023-02-23T00:57:13;92990.78;;;2.90;66.79
45793;BME280;31495;42.740;22.908;2023-02-23T00:58:13;92963.00;;;2.87;66.29
45793;BME280;31495;42.740;22.908;2023-02-23T00:59:13;92969.38;;;2.91;66.37
45793;BME280;31495;42.740;22.908;2023-02-23T01:00:13;92987.69;;;3.03;66.50
45793;BME280;31495;42.740;22.908;2023-02-23T01:01:18;92987.56;;;2.96;66.58
45793;BME280;31495;42.740;22.908;2023-02-23T01:02:18;92955.06;;;2.73;66.82
45793;BME280;31495;42.740;22.908;2023-02-23T01:03:18;92964.47;;;2.81;66.81
45793;BME280;31495;42.740;22.908;2023-02-23T01:04:17;92958.56;;;2.81;66.72
45793;BME280;31495;42.740;22.908;2023-02-23T01:05:17;92971.19;;;2.82;67.14
45793;BME280;31495;42.740;22.908;2023-02-23T01:06:16;92978.50;;;2.85;66.95
45793;BME280;31495;42.740;22.908;2023-02-23T01:07:15;92988.31;;;3.05;66.53
45793;BME280;31495;42.740;22.908;2023-02-23T01:08:16;92953.31;;;2.82;66.39
45793;BME280;31495;42.740;22.908;2023-02-23T01:09:16;92958.06;;;2.85;66.43
45793;BME280;31495;42.740;22.908;2023-02-23T01:10:25;92982.13;;;2.99;66.56
45793;BME280;31495;42.740;22.908;2023-02-23T01:11:27;92918.09;;;2.61;66.33
45793;BME280;31495;42.740;22.908;2023-02-23T01:12:26;92906.31;;;2.52;66.30
45793;BME280;31495;42.740;22.908;2023-02-23T01:13:25;92966.38;;;2.87;66.58
45793;BME280;31495;42.740;22.908;2023-02-23T01:14:27;92986.28;;;3.00;66.51
45793;BME280;31495;42.740;22.908;2023-02-23T01:15:27;92969.72;;;2.88;66.89
45793;BME280;31495;42.740;22.908;2023-02-23T01:16:30;92973.19;;;2.95;66.62
45793;BME280;31495;42.740;22.908;2023-02-23T01:17:30;92926.22;;;2.65;66.56
45793;BME280;31495;42.740;22.908;2023-02-23T01:18:30;92955.53;;;2.77;66.42
45793;BME280;31495;42.740;22.908;2023-02-23T01:19:29;92978.00;;;2.90;66.36
45793;BME280;31495;42.740;22.908;2023-02-23T01:20:33;92968.97;;;2.79;66.30
45793;BME280;31495;42.740;22.908;2023-02-23T01:21:40;92957.00;;;2.71;66.66
45793;BME280;31495;42.740;22.908;2023-02-23T01:22:41;92944.44;;;2.62;66.95
45793;BME280;31495;42.740;22.908;2023-02-23T01:23:41;92961.59;;;2.84;66.78
45793;BME280;31495;42.740;22.908;2023-02-23T01:24:40;92981.34;;;2.99;66.61
45793;BME280;31495;42.740;22.908;2023-02-23T01:25:42;92981.69;;;2.87;66.77
45793;BME280;31495;42.740;22.908;2023-02-23T01:26:43;92983.56;;;2.93;66.76
45793;BME280;31495;42.740;22.908;2023-02-23T01:27:44;92974.66;;;2.89;67.02
45793;BME280;31495;42.740;22.908;2023-02-23T01:28:48;92968.28;;;2.85;67.07
45793;BME280;31495;42.740;22.908;2023-02-23T01:29:48;92988.06;;;2.91;67.21
45793;BME280;31495;42.740;22.908;2023-02-23T01:30:47;92952.69;;;2.72;67.58
45793;BME280;31495;42.740;22.908;2023-02-23T01:31:48;92956.22;;;2.71;68.04
45793;BME280;31495;42.740;22.908;2023-02-23T01:32:49;92957.97;;;2.70;68.40
45793;BME280;31495;42.740;22.908;2023-02-23T01:33:53;92959.84;;;2.76;68.17
45793;BME280;31495;42.740;22.908;2023-02-23T01:34:53;92931.50;;;2.63;67.93
45793;BME280;31495;42.740;22.908;2023-02-23T01:35:59;92976.44;;;2.89;68.20
45793;BME280;31495;42.740;22.908;2023-02-23T01:36:58;92983.88;;;2.99;68.18
45793;BME280;31495;42.740;22.908;2023-02-23T01:37:58;92978.66;;;2.92;68.19
45793;BME280;31495;42.740;22.908;2023-02-23T01:38:58;92933.59;;;2.60;68.10
45793;BME280;31495;42.740;22.908;2023-02-23T01:39:58;92945.19;;;2.70;68.02
45793;BME280;31495;42.740;22.908;2023-02-23T01:40:57;92946.47;;;2.74;67.90
45793;BME280;31495;42.740;22.908;2023-02-23T01:41:57;92974.13;;;3.02;67.38
45793;BME280;31495;42.740;22.908;2023-02-23T01:43:17;92919.69;;;2.62;67.49
45793;BME280;31495;42.740;22.908;2023-02-23T01:45:33;92971.16;;;2.90;67.76
45793;BME280;31495;42.740;22.908;2023-02-23T01:46:38;92982.78;;;2.93;67.84
45793;BME280;31495;42.740;22.908;2023-02-23T01:47:37;92973.88;;;2.89;67.87
45793;BME280;31495;42.740;22.908;2023-02-23T01:48:38;92884.22;;;2.28;68.15
45793;BME280;31495;42.740;22.908;2023-02-23T01:49:38;92978.31;;;2.87;68.12
45793;BME280;31495;42.740;22.908;2023-02-23T01:50:46;92971.81;;;2.84;68.31
45793;BME280;31495;42.740;22.908;2023-02-23T01:52:02;92940.72;;;2.72;68.27
45793;BME280;31495;42.740;22.908;2023-02-23T01:53:04;92951.72;;;2.73;68.44
45793;BME280;31495;42.740;22.908;2023-02-23T01:54:09;92947.75;;;2.70;68.50
45793;BME280;31495;42.740;22.908;2023-02-23T01:55:14;92983.78;;;2.84;68.95
45793;BME280;31495;42.740;22.908;2023-02-23T01:56:25;92959.84;;;2.76;68.98
45793;BME280;31495;42.740;22.908;2023-02-23T01:57:25;92930.09;;;2.52;68.72
45793;BME280;31495;42.740;22.908;2023-02-23T01:58:27;92946.34;;;2.68;68.43
45793;BME280;31495;42.740;22.908;2023-02-23T01:59:42;92938.22;;;2.64;68.17
45793;BME280;31495;42.740;22.908;2023-02-23T02:00:44;92972.75;;;2.83;68.33
45793;BME280;31495;42.740;22.908;2023-02-23T02:01:45;92972.47;;;2.78;68.30
45793;BME280;31495;42.740;22.908;2023-02-23T02:02:46;92979.34;;;2.78;68.74
45793;BME280;31495;42.740;22.908;2023-02-23T02:03:50;92963.88;;;2.71;68.56
45793;BME280;31495;42.740;22.908;2023-02-23T02:04:52;92975.31;;;2.83;68.63
45793;BME280;31495;42.740;22.908;2023-02-23T02:05:55;92920.59;;;2.38;68.50
45793;BME280;31495;42.740;22.908;2023-02-23T02:06:56;92887.47;;;2.22;68.26
45793;BME280;31495;42.740;22.908;2023-02-23T02:07:59;92945.75;;;2.57;68.13
45793;BME280;31495;42.740;22.908;2023-02-23T02:09:04;92980.88;;;2.87;68.27
45793;BME280;31495;42.740;22.908;2023-02-23T02:10:06;92977.72;;;2.85;68.48
45793;BME280;31495;42.740;22.908;2023-02-23T02:11:06;92967.66;;;2.83;68.32
45793;BME280;31495;42.740;22.908;2023-02-23T02:12:24;92980.84;;;2.95;68.52
45793;BME280;31495;42.740;22.908;2023-02-23T02:13:27;92956.50;;;2.76;68.56
45793;BME280;31495;42.740;22.908;2023-02-23T02:14:29;92960.31;;;2.80;67.84
45793;BME280;31495;42.740;22.908;2023-02-23T02:15:32;92949.19;;;2.73;67.72
45793;BME280;31495;42.740;22.908;2023-02-23T02:22:43;92977.81;;;2.60;68.53
45793;BME280;31495;42.740;22.908;2023-02-23T02:23:58;92975.41;;;2.58;68.91
45793;BME280;31495;42.740;22.908;2023-02-23T02:25:28;92975.91;;;2.54;69.43
45793;BME280;31495;42.740;22.908;2023-02-23T02:37:06;92975.31;;;2.44;68.52
45793;BME280;31495;42.740;22.908;2023-02-23T02:38:28;92969.38;;;2.51;68.38
45793;BME280;31495;42.740;22.908;2023-02-23T02:41:13;92967.13;;;2.56;69.03
45793;BME280;31495;42.740;22.908;2023-02-23T02:42:21;92965.06;;;2.52;69.55
45793;BME280;31495;42.740;22.908;2023-02-23T02:43:57;92945.16;;;2.39;69.26
45793;BME280;31495;42.740;22.908;2023-02-23T02:46:39;92925.91;;;2.20;69.15
45793;BME280;31495;42.740;22.908;2023-02-23T02:48:12;92967.63;;;2.52;69.01
45793;BME280;31495;42.740;22.908;2023-02-23T02:49:25;92957.59;;;2.42;68.84
45793;BME280;31495;42.740;22.908;2023-02-23T02:51:38;92967.47;;;2.45;68.87
45793;BME280;31495;42.740;22.908;2023-02-23T02:52:52;92964.31;;;2.43;69.02
45793;BME280;31495;42.740;22.908;2023-02-23T02:54:14;92949.31;;;2.32;69.25
45793;BME280;31495;42.740;22.908;2023-02-23T02:55:25;92935.28;;;2.28;69.04
45793;BME280;31495;42.740;22.908;2023-02-23T02:56:26;92963.84;;;2.39;68.93
45793;BME280;31495;42.740;22.908;2023-02-23T02:57:27;92959.53;;;2.32;68.94
45793;BME280;31495;42.740;22.908;2023-02-23T02:58:28;92961.16;;;2.33;68.60
45793;BME280;31495;42.740;22.908;2023-02-23T02:59:27;92931.53;;;2.07;68.82
45793;BME280;31495;42.740;22.908;2023-02-23T03:00:47;92968.63;;;2.34;68.65
45793;BME280;31495;42.740;22.908;2023-02-23T03:02:16;92957.47;;;2.27;68.40
45793;BME280;31495;42.740;22.908;2023-02-23T03:03:38;92915.09;;;2.01;68.60
45793;BME280;31495;42.740;22.908;2023-02-23T03:04:56;92949.84;;;2.11;68.69
45793;BME280;31495;42.740;22.908;2023-02-23T03:06:15;92953.34;;;2.10;68.93
45793;BME280;31495;42.740;22.908;2023-02-23T03:07:52;92978.06;;;2.26;68.89
45793;BME280;31495;42.740;22.908;2023-02-23T03:12:32;92946.34;;;2.12;68.96
45793;BME280;31495;42.740;22.908;2023-02-23T03:14:23;92976.13;;;2.28;69.02
45793;BME280;31495;42.740;22.908;2023-02-23T03:15:56;92977.91;;;2.27;68.97
45793;BME280;31495;42.740;22.908;2023-02-23T03:20:25;92982.06;;;2.28;68.64
45793;BME280;31495;42.740;22.908;2023-02-23T03:21:53;92975.34;;;2.19;68.76
45793;BME280;31495;42.740;22.908;2023-02-23T03:23:25;92970.44;;;2.09;69.18
45793;BME280;31495;42.740;22.908;2023-02-23T03:24:55;92982.38;;;2.17;69.80
45793;BME280;31495;42.740;22.908;2023-02-23T03:26:41;92991.16;;;2.14;69.81
45793;BME280;31495;42.740;22.908;2023-02-23T03:29:44;92990.03;;;2.17;69.54
45793;BME280;31495;42.740;22.908;2023-02-23T03:31:24;92982.09;;;2.12;69.43
45793;BME280;31495;42.740;22.908;2023-02-23T03:32:54;92940.63;;;1.85;69.93
45793;BME280;31495;42.740;22.908;2023-02-23T03:34:26;92957.06;;;1.91;69.83
45793;BME280;31495;42.740;22.908;2023-02-23T03:37:11;92990.50;;;2.20;69.22
45793;BME280;31495;42.740;22.908;2023-02-23T03:38:39;92952.28;;;1.88;69.43
45793;BME280;31495;42.740;22.908;2023-02-23T03:40:07;92990.06;;;2.09;69.58
45793;BME280;31495;42.740;22.908;2023-02-23T03:41:29;92944.78;;;1.86;69.55
45793;BME280;31495;42.740;22.908;2023-02-23T03:42:51;92987.97;;;2.12;69.62
45793;BME280;31495;42.740;22.908;2023-02-23T03:44:31;92996.13;;;2.08;69.74
45793;BME280;31495;42.740;22.908;2023-02-23T03:45:51;92992.63;;;2.00;69.62
45793;BME280;31495;42.740;22.908;2023-02-23T03:47:10;92998.34;;;2.02;69.35
45793;BME280;31495;42.740;22.908;2023-02-23T03:48:33;93001.22;;;2.08;69.41
45793;BME280;31495;42.740;22.908;2023-02-23T03:49:54;92968.38;;;1.88;69.12
45793;BME280;31495;42.740;22.908;2023-02-23T03:51:14;92969.00;;;1.82;69.19
45793;BME280;31495;42.740;22.908;2023-02-23T03:52:43;93003.31;;;2.04;69.31
45793;BME280;31495;42.740;22.908;2023-02-23T03:54:08;92985.59;;;1.86;69.73
45793;BME280;31495;42.740;22.908;2023-02-23T03:55:34;92921.72;;;1.38;69.95
45793;BME280;31495;42.740;22.908;2023-02-23T03:56:56;92991.19;;;1.81;70.02
45793;BME280;31495;42.740;22.908;2023-02-23T03:58:19;93000.13;;;1.86;70.14
45793;BME280;31495;42.740;22.908;2023-02-23T03:59:44;93004.56;;;1.92;70.15
45793;BME280;31495;42.740;22.908;2023-02-23T04:01:06;92982.13;;;1.79;70.31
45793;BME280;31495;42.740;22.908;2023-02-23T04:02:26;92975.09;;;1.81;70.25
45793;BME280;31495;42.740;22.908;2023-02-23T04:03:46;93001.53;;;2.05;70.17
45793;BME280;31495;42.740;22.908;2023-02-23T04:05:10;92998.19;;;1.96;70.27
45793;BME280;31495;42.740;22.908;2023-02-23T04:06:35;92996.28;;;1.90;70.41
45793;BME280;31495;42.740;22.908;2023-02-23T04:07:56;92951.16;;;1.57;70.49
45793;BME280;31495;42.740;22.908;2023-02-23T04:09:16;92984.50;;;1.80;70.24
45793;BME280;31495;42.740;22.908;2023-02-23T04:10:36;92943.53;;;1.57;69.88
45793;BME280;31495;42.740;22.908;2023-02-23T04:13:26;92972.06;;;1.69;69.78
45793;BME280;31495;42.740;22.908;2023-02-23T04:14:40;92985.13;;;1.74;69.85
45793;BME280;31495;42.740;22.908;2023-02-23T04:15:47;92960.59;;;1.57;69.83
45793;BME280;31495;42.740;22.908;2023-02-23T04:16:48;92991.19;;;1.90;69.55
45793;BME280;31495;42.740;22.908;2023-02-23T04:17:48;92961.53;;;1.64;69.71
45793;BME280;31495;42.740;22.908;2023-02-23T04:18:48;92931.75;;;1.48;69.93
45793;BME280;31495;42.740;22.908;2023-02-23T04:19:49;92959.63;;;1.66;69.93
45793;BME280;31495;42.740;22.908;2023-02-23T04:20:49;92988.16;;;1.78;70.11
45793;BME280;31495;42.740;22.908;2023-02-23T04:21:49;92997.25;;;1.80;70.30
45793;BME280;31495;42.740;22.908;2023-02-23T04:22:48;92986.09;;;1.73;69.86
45793;BME280;31495;42.740;22.908;2023-02-23T04:23:47;92982.91;;;1.71;69.61
45793;BME280;31495;42.740;22.908;2023-02-23T04:24:47;92995.81;;;1.78;69.52
45793;BME280;31495;42.740;22.908;2023-02-23T04:25:48;92995.34;;;1.74;69.60
45793;BME280;31495;42.740;22.908;2023-02-23T04:26:47;92934.59;;;1.37;69.30
45793;BME280;31495;42.740;22.908;2023-02-23T04:27:51;92978.91;;;1.69;69.31
45793;BME280;31495;42.740;22.908;2023-02-23T04:28:50;92993.25;;;1.78;69.41
45793;BME280;31495;42.740;22.908;2023-02-23T04:29:50;92994.72;;;1.80;69.16
45793;BME280;31495;42.740;22.908;2023-02-23T04:30:49;92994.88;;;1.71;69.18
45793;BME280;31495;42.740;22.908;2023-02-23T04:31:50;92987.84;;;1.64;69.40
45793;BME280;31495;42.740;22.908;2023-02-23T04:32:52;92963.91;;;1.49;69.29
45793;BME280;31495;42.740;22.908;2023-02-23T04:33:51;92994.06;;;1.62;69.43
45793;BME280;31495;42.740;22.908;2023-02-23T04:34:51;92968.69;;;1.52;69.70
45793;BME280;31495;42.740;22.908;2023-02-23T04:35:54;92991.19;;;1.65;70.11
45793;BME280;31495;42.740;22.908;2023-02-23T04:36:53;92958.03;;;1.49;69.69
45793;BME280;31495;42.740;22.908;2023-02-23T04:37:53;92943.50;;;1.33;69.56
45793;BME280;31495;42.740;22.908;2023-02-23T04:38:53;92983.84;;;1.54;70.11
45793;BME280;31495;42.740;22.908;2023-02-23T04:39:52;92973.00;;;1.43;70.06
45793;BME280;31495;42.740;22.908;2023-02-23T04:40:52;92984.31;;;1.49;70.22
45793;BME280;31495;42.740;22.908;2023-02-23T04:41:51;92978.75;;;1.45;70.74
45793;BME280;31495;42.740;22.908;2023-02-23T04:42:51;92993.56;;;1.67;70.03
45793;BME280;31495;42.740;22.908;2023-02-23T04:43:50;92988.63;;;1.65;69.80
45793;BME280;31495;42.740;22.908;2023-02-23T04:44:50;92983.84;;;1.62;69.54
45793;BME280;31495;42.740;22.908;2023-02-23T04:45:49;92973.31;;;1.40;70.12
45793;BME280;31495;42.740;22.908;2023-02-23T04:46:48;92968.06;;;1.34;70.54
45793;BME280;31495;42.740;22.908;2023-02-23T04:47:48;92990.84;;;1.43;70.60
45793;BME280;31495;42.740;22.908;2023-02-23T04:48:48;92989.91;;;1.53;70.43
45793;BME280;31495;42.740;22.908;2023-02-23T04:49:47;92980.03;;;1.50;70.33
45793;BME280;31495;42.740;22.908;2023-02-23T04:50:51;92961.88;;;1.36;70.02
45793;BME280;31495;42.740;22.908;2023-02-23T04:51:50;92988.63;;;1.57;70.04
45793;BME280;31495;42.740;22.908;2023-02-23T04:52:50;92958.50;;;1.36;69.89
45793;BME280;31495;42.740;22.908;2023-02-23T04:53:51;92965.50;;;1.42;70.07
45793;BME280;31495;42.740;22.908;2023-02-23T04:54:50;92985.13;;;1.50;69.87
45793;BME280;31495;42.740;22.908;2023-02-23T04:55:49;92922.94;;;1.09;70.16
45793;BME280;31495;42.740;22.908;2023-02-23T04:56:49;92958.47;;;1.27;70.34
45793;BME280;31495;42.740;22.908;2023-02-23T04:57:48;92989.09;;;1.44;70.98
45793;BME280;31495;42.740;22.908;2023-02-23T04:58:48;92999.44;;;1.42;71.27
45793;BME280;31495;42.740;22.908;2023-02-23T04:59:48;92981.59;;;1.34;71.04
45793;BME280;31495;42.740;22.908;2023-02-23T05:00:48;92958.16;;;1.22;71.21
45793;BME280;31495;42.740;22.908;2023-02-23T05:01:48;92988.16;;;1.53;70.89
45793;BME280;31495;42.740;22.908;2023-02-23T05:02:47;92990.22;;;1.50;70.86
45793;BME280;31495;42.740;22.908;2023-02-23T05:03:48;92977.31;;;1.35;71.30
45793;BME280;31495;42.740;22.908;2023-02-23T05:04:47;92962.66;;;1.28;71.10
45793;BME280;31495;42.740;22.908;2023-02-23T05:05:47;92962.00;;;1.26;71.10
45793;BME280;31495;42.740;22.908;2023-02-23T05:06:47;92936.16;;;1.05;71.01
45793;BME280;31495;42.740;22.908;2023-02-23T05:07:47;92895.84;;;0.84;70.94
45793;BME280;31495;42.740;22.908;2023-02-23T05:08:46;92948.91;;;1.21;71.11
45793;BME280;31495;42.740;22.908;2023-02-23T05:09:45;92964.06;;;1.31;71.04
45793;BME280;31495;42.740;22.908;2023-02-23T05:10:45;92995.97;;;1.43;71.28
45793;BME280;31495;42.740;22.908;2023-02-23T05:11:45;92995.16;;;1.43;71.45
45793;BME280;31495;42.740;22.908;2023-02-23T05:12:45;92965.66;;;1.24;71.71
45793;BME280;31495;42.740;22.908;2023-02-23T05:13:45;93002.00;;;1.42;71.44
45793;BME280;31495;42.740;22.908;2023-02-23T05:14:44;92967.72;;;1.20;71.50
45793;BME280;31495;42.740;22.908;2023-02-23T05:15:43;92964.03;;;1.15;71.06
45793;BME280;31495;42.740;22.908;2023-02-23T05:16:43;92972.66;;;1.14;71.31
45793;BME280;31495;42.740;22.908;2023-02-23T05:17:42;92942.19;;;0.96;71.73
45793;BME280;31495;42.740;22.908;2023-02-23T05:18:41;92939.50;;;0.97;71.79
45793;BME280;31495;42.740;22.908;2023-02-23T05:19:41;93003.44;;;1.37;71.83
45793;BME280;31495;42.740;22.908;2023-02-23T05:20:43;92997.34;;;1.29;71.84
45793;BME280;31495;42.740;22.908;2023-02-23T05:21:43;92987.78;;;1.15;71.58
45793;BME280;31495;42.740;22.908;2023-02-23T05:22:43;92961.16;;;1.01;71.04
45793;BME280;31495;42.740;22.908;2023-02-23T05:23:42;92968.03;;;1.09;70.78
45793;BME280;31495;42.740;22.908;2023-02-23T05:24:41;93005.50;;;1.33;70.38
45793;BME280;31495;42.740;22.908;2023-02-23T05:25:41;93006.44;;;1.32;70.83
45793;BME280;31495;42.740;22.908;2023-02-23T05:26:40;92983.31;;;1.17;71.18
45793;BME280;31495;42.740;22.908;2023-02-23T05:27:40;92945.84;;;0.93;70.81
45793;BME280;31495;42.740;22.908;2023-02-23T05:28:41;92955.72;;;0.96;70.86
45793;BME280;31495;42.740;22.908;2023-02-23T05:29:40;93003.88;;;1.24;70.99
45793;BME280;31495;42.740;22.908;2023-02-23T05:30:40;92995.16;;;1.26;70.78
45793;BME280;31495;42.740;22.908;2023-02-23T05:31:39;93009.00;;;1.40;70.12
45793;BME280;31495;42.740;22.908;2023-02-23T05:32:38;92998.34;;;1.37;69.74
45793;BME280;31495;42.740;22.908;2023-02-23T05:33:38;92997.06;;;1.41;69.60
45793;BME280;31495;42.740;22.908;2023-02-23T05:34:40;92975.22;;;1.14;69.95
45793;BME280;31495;42.740;22.908;2023-02-23T05:35:40;93014.88;;;1.33;69.88
45793;BME280;31495;42.740;22.908;2023-02-23T05:36:39;93008.38;;;1.30;69.74
45793;BME280;31495;42.740;22.908;2023-02-23T05:37:39;93019.69;;;1.36;69.74
45793;BME280;31495;42.740;22.908;2023-02-23T05:38:39;93027.16;;;1.29;69.75
45793;BME280;31495;42.740;22.908;2023-02-23T05:39:39;93019.81;;;1.34;69.99
45793;BME280;31495;42.740;22.908;2023-02-23T05:40:38;92978.06;;;1.10;70.16
45793;BME280;31495;42.740;22.908;2023-02-23T05:41:38;93017.97;;;1.44;70.54
45793;BME280;31495;42.740;22.908;2023-02-23T05:42:38;93017.28;;;1.42;70.22
45793;BME280;31495;42.740;22.908;2023-02-23T05:43:37;93004.06;;;1.31;70.65
45793;BME280;31495;42.740;22.908;2023-02-23T05:44:37;93020.00;;;1.41;70.44
45793;BME280;31495;42.740;22.908;2023-02-23T05:45:40;93039.13;;;1.37;70.32
45793;BME280;31495;42.740;22.908;2023-02-23T05:46:40;92984.38;;;0.98;70.56
45793;BME280;31495;42.740;22.908;2023-02-23T05:47:40;93035.44;;;1.39;70.16
45793;BME280;31495;42.740;22.908;2023-02-23T05:48:39;92995.59;;;1.14;70.20
45793;BME280;31495;42.740;22.908;2023-02-23T05:49:39;92945.19;;;0.83;70.32
45793;BME280;31495;42.740;22.908;2023-02-23T05:50:39;93028.63;;;1.40;70.23
45793;BME280;31495;42.740;22.908;2023-02-23T05:51:39;93009.13;;;1.22;70.05
45793;BME280;31495;42.740;22.908;2023-02-23T05:52:40;93042.31;;;1.39;70.25
45793;BME280;31495;42.740;22.908;2023-02-23T05:53:40;93044.22;;;1.37;70.25
45793;BME280;31495;42.740;22.908;2023-02-23T05:54:39;92991.09;;;0.99;70.54
45793;BME280;31495;42.740;22.908;2023-02-23T05:55:39;92999.06;;;1.04;70.38
45793;BME280;31495;42.740;22.908;2023-02-23T05:56:40;93020.63;;;1.18;70.25
45793;BME280;31495;42.740;22.908;2023-02-23T05:57:39;93021.56;;;1.17;70.42
45793;BME280;31495;42.740;22.908;2023-02-23T05:58:39;93039.75;;;1.31;70.53
45793;BME280;31495;42.740;22.908;2023-02-23T05:59:39;93059.88;;;1.50;70.23
45793;BME280;31495;42.740;22.908;2023-02-23T06:00:38;93035.66;;;1.46;70.18
45793;BME280;31495;42.740;22.908;2023-02-23T06:01:38;93010.91;;;1.30;69.89
45793;BME280;31495;42.740;22.908;2023-02-23T06:02:38;93012.00;;;1.27;70.10
45793;BME280;31495;42.740;22.908;2023-02-23T06:03:38;93034.34;;;1.42;70.19
45793;BME280;31495;42.740;22.908;2023-02-23T06:04:37;93060.97;;;1.56;70.32
45793;BME280;31495;42.740;22.908;2023-02-23T06:05:37;93013.31;;;1.32;70.18
45793;BME280;31495;42.740;22.908;2023-02-23T06:06:37;93049.69;;;1.58;69.85
45793;BME280;31495;42.740;22.908;2023-02-23T06:07:36;93012.69;;;1.38;69.96
45793;BME280;31495;42.740;22.908;2023-02-23T06:08:36;93016.03;;;1.38;69.87
45793;BME280;31495;42.740;22.908;2023-02-23T06:09:36;93033.56;;;1.50;69.68
45793;BME280;31495;42.740;22.908;2023-02-23T06:10:35;93060.53;;;1.69;69.93
45793;BME280;31495;42.740;22.908;2023-02-23T06:11:35;93037.88;;;1.57;69.90
45793;BME280;31495;42.740;22.908;2023-02-23T06:12:34;93045.69;;;1.64;69.97
45793;BME280;31495;42.740;22.908;2023-02-23T06:13:34;93001.03;;;1.35;69.74
45793;BME280;31495;42.740;22.908;2023-02-23T06:14:33;93041.72;;;1.61;69.61
45793;BME280;31495;42.740;22.908;2023-02-23T06:15:33;93047.63;;;1.70;69.87
45793;BME280;31495;42.740;22.908;2023-02-23T06:16:32;93031.19;;;1.56;69.97
45793;BME280;31495;42.740;22.908;2023-02-23T06:17:32;93051.47;;;1.74;70.25
45793;BME280;31495;42.740;22.908;2023-02-23T06:18:32;93051.00;;;1.79;70.24